ADDS METAR Data INFO
IDs: Format: Raw Decoded Include TAF

Data at: 0037 UTC 23 Oct 2017

PGSN 222354Z 08011KT 10SM FEW015 SCT030 BKN100 29/29 A2979 RMK AO2 RAB01E51 SLP110 +VCSH W P0024 60026 T02940289 10294 20272 51006
PGSN 222254Z 09008KT 10SM SCT020 SCT050 29/28 A2979 RMK AO2 RAB11E26 SLP109 P0000 T02940283
PGSN 222207Z 08007KT 10SM FEW012 SCT020 SCT055 28/28 A2979 RMK AO2 T02830278 $
PGSN 222154Z 09006KT 10SM FEW013 BKN020 BKN110 28/28 A2979 RMK AO2 RAB03E15 SLP108 P0000 T02830278 $
PGSN 222054Z 08007KT 10SM FEW015 FEW034 SCT110 28/27 A2977 RMK AO2 RAB41E54 SLP103 P0000 60002 T02780272 53010 $
PGSN 221954Z 08009KT 10SM SCT014 OVC110 27/27 A2976 RMK AO2 RAB1856E15B36E49 SLP100 P0002 T02720272 $
PGSN 221854Z 06007KT 8SM SCT014 OVC110 27/27 A2974 RMK AO2 RAB1759E16 SLP093 P0000 T02720272 $
PGSN 221754Z 02007KT 10SM FEW020 FEW110 27/27 A2974 RMK AO2 SLP093 60011 T02720267 10272 20256 58015 $
PGSN 221654Z 35004KT 10SM BKN110 26/26 A2976 RMK AO2 SLP100 T02610256 $
PGSN 221554Z 01005KT 10SM BKN110 26/26 A2977 RMK AO2 RAE15 SLP101 P0011 T02610256 $
PGSN 221454Z 06009KT 5SM -RA BR FEW016 SCT034 BKN110 26/25 A2979 RMK AO2 RAB45 SLP108 P0000 60000 T02560250 55005 $
PGSN 221354Z 35004KT 10SM BKN110 27/26 A2979 RMK AO2 SLP107 T02670261 403110256 $
PGSN 221254Z 01005KT 10SM FEW042 BKN075 OVC110 27/27 A2980 RMK AO2 SLP113 T02670267 $
PGSN 221154Z 35004KT 10SM FEW080 SCT095 BKN120 27/27 A2980 RMK AO2 SLP113 70014 T02670267 10272 20261 53009 $
PGSN 221054Z 36005KT 10SM FEW080 BKN095 OVC120 26/26 A2979 RMK AO2 SLP110 T02610261 $
PGSN 220954Z 36005KT 10SM BKN110 26/26 A2978 RMK AO2 SLP105 T02610261 $
PGSN 220854Z 35004KT 10SM BKN110 26/26 A2977 RMK AO2 SLP103 T02610261 53012 $
PGSN 220754Z 34004KT 10SM SCT110 26/26 A2976 RMK AO2 SLP099 T02610261 $
PGSN 220654Z 00000KT 10SM SCT100 27/26 A2975 RMK AO2 SLP095 T02670261 $
PGSN 220554Z 07004KT 10SM SCT110 27/26 A2974 RMK AO2 WSHFT 0445 RAE42 SLP092 P0000 60014 T02670256 10311 20256 56009 $
PGSN 220505Z 05011KT 4SM -RA BR FEW019 SCT038 BKN050 26/26 A2974 RMK AO2 WSHFT 0445 P0000 T02560256 $
PGSN 220454Z 04015G22KT 4SM +RA BR FEW013 SCT034 BKN070 26/26 A2975 RMK AO2 RAB26 SLP094 P0014 T02610256 $
PGSN 220448Z 08012G15KT 1 3/4SM +RA BR SCT013 BKN037 BKN050 27/26 A2975 RMK AO2 RAB26 P0001 $
PGSN 220354Z 06006KT 10SM FEW049 BKN080 BKN100 29/27 A2976 RMK AO2 RAB03E42 SLP097 P0000 T02940267 $
PGSN 220254Z 07006KT 10SM SCT016 BKN075 30/27 A2977 RMK AO2 SLP101 T03000267 58016 $
PGSN 220154Z 04006KT 10SM FEW018 31/27 A2978 RMK AO2 SLP106 T03060267 $
PGSN 220054Z 07007KT 10SM FEW018 OVC060 31/27 A2981 RMK AO2 SLP114 T03060267 $
PGSN 212354Z VRB03KT 10SM FEW018 OVC200 30/27 A2981 RMK AO2 SLP117 T03000267 10300 20267 51005 $
PGSN 212254Z 01006KT 10SM FEW018 OVC200 29/27 A2981 RMK AO2 SLP115 T02940267 $
PGSN 212154Z 07012KT 10SM FEW011 BKN080 OVC100 28/27 A2980 RMK AO2 SLP114 T02830267 $
PGSN 212054Z 05007KT 10SM BKN060 BKN075 OVC090 28/27 A2980 RMK AO2 SLP111 T02780267 53013 $
PGSN 211954Z 07005KT 10SM FEW070 BKN095 OVC120 27/26 A2977 RMK AO2 SLP102 T02720261 $
PGSN 211854Z 33004KT 10SM BKN110 27/26 A2976 RMK AO2 SLP097 T02670261 $
PGSN 211754Z 06009KT 10SM BKN090 BKN120 27/26 A2976 RMK AO2 SLP098 T02720261 10283 20272 55009 $
PGSN 211654Z 04007KT 10SM BKN110 28/27 A2976 RMK AO2 SLP097 T02780267 $
PGSN 211554Z 03007KT 10SM OVC090 28/26 A2978 RMK AO2 SLP104 T02780261 $
PGSN 211454Z 04007KT 10SM SCT110 28/26 A2979 RMK AO2 SLP108 T02780261 58011 $
PGSN 211354Z 32004KT 10SM SCT110 27/27 A2981 RMK AO2 SLP114 T02720267 403170261 $
PGSN 211254Z 01004KT 10SM OVC090 28/27 A2983 RMK AO2 SLP121 T02780267 $